Nashville, Tennessee
Traffic Map
Current Weather Conditions
Nashville, Tennessee
Few Clouds
Few Clouds

Feels Like: 8°
Wind Chill: Ceiling: Unl
Heat Index: Visibility: 10mi
Dew Point: Wind: 3mph
Humidity: 63% Direction: 170° (S)
Pressure: 30.22in Gusts: 0mph
Raw Report DataKBNA 170353Z 17003KT 10SM FEW250 08/02 A3022 RMK AO2 SLP233 T00830017
Traffic Incident Summary
Active as of:
Severity:
Category:
InformationThere was an issue retrieving the traffic information for this location. Please try a different location or try again shortly.
Advertisements
At Last! Intellicast now available for iPhone and Android